Time;durP1;ratioP1;P1;durP2;ratioP2;P2;SDS_P1;SDS_P2;PMS_P1;PMS_P2;Temp;Humidity;BMP_temperature;BMP_pressure;BME280_temperature;BME280_humidity;BME280_pressure;Samples;Min_cycle;Max_cycle;Signal;HPM_P1;HPM_P2
2023/08/09 00:00:13;;;;;;;3.17;2.40;;;;;;;;;;5027850;28;20657;-55
2023/08/09 00:02:39;;;;;;;4.47;2.70;;;;;;;;;;5028709;28;20212;-55
2023/08/09 00:05:06;;;;;;;4.10;2.57;;;;;;;;;;5028191;28;20240;-55
2023/08/09 00:07:32;;;;;;;2.60;2.30;;;;;;;;;;5025597;28;20183;-56
2023/08/09 00:09:58;;;;;;;3.10;2.23;;;;;;;;;;5027917;28;20503;-56
2023/08/09 00:12:24;;;;;;;2.57;2.30;;;;;;;;;;5027740;28;20182;-56
2023/08/09 00:14:50;;;;;;;3.03;1.77;;;;;;;;;;5029410;28;20182;-56
2023/08/09 00:17:16;;;;;;;1.97;1.87;;;;;;;;;;5027263;28;20614;-56
2023/08/09 00:19:42;;;;;;;1.90;1.80;;;;;;;;;;5028629;28;20472;-56
2023/08/09 00:22:09;;;;;;;1.77;1.67;;;;;;;;;;5027481;28;20189;-56
2023/08/09 00:24:35;;;;;;;1.77;1.63;;;;;;;;;;5026474;28;20237;-56
2023/08/09 00:27:01;;;;;;;1.73;1.63;;;;;;;;;;5028451;28;20189;-56
2023/08/09 00:29:27;;;;;;;1.73;1.63;;;;;;;;;;5027551;28;20213;-56
2023/08/09 00:31:55;;;;;;;1.90;1.80;;;;;;;;;;5028296;28;20716;-56
2023/08/09 00:34:21;;;;;;;1.67;1.47;;;;;;;;;;5028474;28;20181;-56
2023/08/09 00:36:48;;;;;;;1.70;1.60;;;;;;;;;;5026595;28;20249;-56
2023/08/09 00:39:14;;;;;;;1.87;1.73;;;;;;;;;;5020849;28;20229;-56
2023/08/09 00:41:40;;;;;;;1.73;1.60;;;;;;;;;;5023530;28;20695;-56
2023/08/09 00:44:06;;;;;;;1.43;1.33;;;;;;;;;;5025638;28;20245;-58
2023/08/09 00:46:32;;;;;;;1.90;1.50;;;;;;;;;;5026488;28;20194;-53
2023/08/09 00:48:58;;;;;;;1.60;1.50;;;;;;;;;;5026385;28;20213;-52
2023/08/09 00:51:24;;;;;;;1.77;1.50;;;;;;;;;;5025356;28;20320;-53
2023/08/09 00:53:51;;;;;;;1.60;1.50;;;;;;;;;;5025349;28;20208;-53
2023/08/09 00:56:17;;;;;;;1.93;1.83;;;;;;;;;;5025674;28;20817;-52
2023/08/09 00:58:43;;;;;;;2.17;1.43;;;;;;;;;;5027872;28;20280;-53
2023/08/09 01:01:09;;;;;;;1.93;1.53;;;;;;;;;;5022401;28;20590;-53
2023/08/09 01:03:35;;;;;;;1.80;1.70;;;;;;;;;;5027677;28;20284;-53
2023/08/09 01:06:15;;;;;;;1.30;1.20;;;;;;;;;;5027400;28;20196;-53
2023/08/09 01:08:48;;;;;;;1.60;1.40;;;;;;;;;;5025730;28;20190;-53
2023/08/09 01:11:18;;;;;;;1.43;1.33;;;;;;;;;;5026442;28;20182;-53
2023/08/09 01:13:45;;;;;;;1.87;1.77;;;;;;;;;;5026049;28;20251;-53
2023/08/09 01:16:11;;;;;;;1.87;1.73;;;;;;;;;;5023302;28;20189;-53
2023/08/09 01:18:40;;;;;;;2.43;1.80;;;;;;;;;;5026571;28;20284;-53
2023/08/09 01:21:06;;;;;;;2.10;1.83;;;;;;;;;;5025831;28;20213;-53
2023/08/09 01:23:39;;;;;;;1.60;1.50;;;;;;;;;;5026948;28;20240;-53
2023/08/09 01:26:05;;;;;;;2.00;1.80;;;;;;;;;;5025823;28;20186;-53
2023/08/09 01:28:31;;;;;;;2.10;1.90;;;;;;;;;;5026801;28;20272;-53
2023/08/09 01:30:58;;;;;;;2.00;1.63;;;;;;;;;;5027929;28;20245;-53
2023/08/09 01:33:24;;;;;;;1.70;1.60;;;;;;;;;;5027413;28;20785;-53
2023/08/09 01:35:54;;;;;;;1.77;1.67;;;;;;;;;;5025317;28;20194;-53
2023/08/09 01:38:23;;;;;;;1.80;1.70;;;;;;;;;;5023512;28;20669;-53
2023/08/09 01:40:49;;;;;;;2.17;1.87;;;;;;;;;;5025001;28;20642;-53
2023/08/09 01:43:16;;;;;;;2.17;1.70;;;;;;;;;;5026740;28;20656;-53
2023/08/09 01:45:42;;;;;;;2.03;1.83;;;;;;;;;;5025153;28;20182;-53
2023/08/09 01:48:08;;;;;;;1.80;1.70;;;;;;;;;;5024508;28;20186;-53
2023/08/09 01:50:35;;;;;;;1.90;1.70;;;;;;;;;;5023840;28;20819;-53
2023/08/09 01:53:01;;;;;;;1.60;1.50;;;;;;;;;;5026903;28;20534;-52
2023/08/09 01:55:27;;;;;;;3.13;1.90;;;;;;;;;;5024944;28;20216;-56
2023/08/09 01:57:54;;;;;;;1.90;1.80;;;;;;;;;;5025245;28;20214;-56
2023/08/09 02:00:22;;;;;;;1.60;1.50;;;;;;;;;;5023821;28;20190;-55
2023/08/09 02:02:49;;;;;;;2.20;1.80;;;;;;;;;;5025753;28;20672;-56
2023/08/09 02:05:15;;;;;;;2.37;1.97;;;;;;;;;;5026249;28;20193;-51
2023/08/09 02:07:41;;;;;;;2.10;1.87;;;;;;;;;;5024825;28;20255;-52
2023/08/09 02:10:09;;;;;;;1.63;1.53;;;;;;;;;;5026613;28;20189;-52
2023/08/09 02:12:35;;;;;;;1.67;1.57;;;;;;;;;;5025380;28;20189;-52
2023/08/09 02:15:01;;;;;;;1.93;1.83;;;;;;;;;;5025742;28;20287;-55
2023/08/09 02:17:27;;;;;;;1.80;1.70;;;;;;;;;;5025245;28;20212;-56
2023/08/09 02:19:54;;;;;;;1.73;1.63;;;;;;;;;;5025697;28;20949;-56
2023/08/09 02:22:20;;;;;;;1.47;1.37;;;;;;;;;;5025059;28;20716;-56
2023/08/09 02:24:46;;;;;;;2.10;1.53;;;;;;;;;;5025963;28;20197;-55
2023/08/09 02:27:13;;;;;;;1.67;1.57;;;;;;;;;;5026273;28;20202;-55
2023/08/09 02:29:39;;;;;;;1.63;1.53;;;;;;;;;;5025492;28;20190;-55
2023/08/09 02:32:05;;;;;;;1.90;1.40;;;;;;;;;;5025092;28;20552;-56
2023/08/09 02:34:32;;;;;;;1.77;1.67;;;;;;;;;;5009198;28;20986;-56
2023/08/09 02:36:59;;;;;;;1.30;1.20;;;;;;;;;;5027376;28;20240;-56
2023/08/09 02:39:25;;;;;;;1.40;1.30;;;;;;;;;;5010983;28;20557;-55
2023/08/09 02:41:51;;;;;;;1.80;1.70;;;;;;;;;;5028808;28;20205;-55
2023/08/09 02:44:17;;;;;;;1.73;1.40;;;;;;;;;;5028998;28;20186;-53
2023/08/09 02:46:43;;;;;;;1.50;1.40;;;;;;;;;;5027265;28;20650;-53
2023/08/09 02:49:09;;;;;;;1.50;1.40;;;;;;;;;;5030013;28;20197;-52
2023/08/09 02:51:35;;;;;;;1.43;1.30;;;;;;;;;;5028372;28;21087;-53
2023/08/09 02:54:03;;;;;;;1.57;1.47;;;;;;;;;;5029743;28;20299;-53
2023/08/09 02:56:30;;;;;;;1.57;1.47;;;;;;;;;;5027972;28;20204;-53
2023/08/09 02:58:56;;;;;;;1.60;1.50;;;;;;;;;;5029903;28;20186;-53
2023/08/09 03:01:22;;;;;;;1.73;1.63;;;;;;;;;;5028869;28;20256;-53
2023/08/09 03:03:49;;;;;;;1.53;1.43;;;;;;;;;;5030216;28;20653;-52
2023/08/09 03:06:15;;;;;;;1.40;1.30;;;;;;;;;;5028219;28;20197;-52
2023/08/09 03:08:41;;;;;;;1.87;1.40;;;;;;;;;;5026723;28;20236;-53
2023/08/09 03:11:07;;;;;;;1.37;1.30;;;;;;;;;;5029135;28;20186;-53
2023/08/09 03:13:33;;;;;;;1.63;1.53;;;;;;;;;;5010990;28;20555;-52
2023/08/09 03:15:59;;;;;;;1.10;1.10;;;;;;;;;;5028861;28;20292;-52
2023/08/09 03:18:26;;;;;;;1.50;1.40;;;;;;;;;;5027739;28;20672;-52
2023/08/09 03:20:52;;;;;;;1.50;1.40;;;;;;;;;;5029688;28;20228;-53
2023/08/09 03:23:18;;;;;;;1.50;1.40;;;;;;;;;;5027572;28;20837;-52
2023/08/09 03:25:44;;;;;;;1.17;1.17;;;;;;;;;;5029270;28;20193;-53
2023/08/09 03:28:11;;;;;;;1.37;1.27;;;;;;;;;;5028000;28;20193;-53
2023/08/09 03:30:37;;;;;;;1.30;1.20;;;;;;;;;;5028925;28;20225;-53
2023/08/09 03:33:04;;;;;;;1.50;1.40;;;;;;;;;;5027608;28;20209;-53
2023/08/09 03:35:30;;;;;;;1.40;1.30;;;;;;;;;;5012184;28;20194;-55
2023/08/09 03:37:56;;;;;;;1.23;1.20;;;;;;;;;;5027386;28;20214;-55
2023/08/09 03:40:22;;;;;;;1.67;1.57;;;;;;;;;;5028792;28;20189;-56
2023/08/09 03:42:48;;;;;;;1.03;1.03;;;;;;;;;;5025601;28;20190;-55
2023/08/09 03:45:14;;;;;;;1.10;1.10;;;;;;;;;;5020632;28;20263;-55
2023/08/09 03:47:40;;;;;;;1.37;1.27;;;;;;;;;;5027239;28;20185;-55
2023/08/09 03:50:06;;;;;;;1.40;1.30;;;;;;;;;;5027265;28;20277;-55
2023/08/09 03:52:33;;;;;;;1.23;1.20;;;;;;;;;;5027950;28;20190;-56
2023/08/09 03:54:59;;;;;;;1.60;1.50;;;;;;;;;;5027595;28;20248;-55
2023/08/09 03:57:27;;;;;;;1.60;1.50;;;;;;;;;;5028142;28;20216;-55
2023/08/09 03:59:54;;;;;;;1.00;1.00;;;;;;;;;;5027151;28;20322;-55
2023/08/09 04:02:20;;;;;;;1.50;1.40;;;;;;;;;;5025864;28;20559;-55
2023/08/09 04:04:46;;;;;;;1.57;1.47;;;;;;;;;;5025364;28;20649;-55
2023/08/09 04:07:12;;;;;;;1.80;1.70;;;;;;;;;;5027058;28;20248;-56
2023/08/09 04:09:38;;;;;;;1.53;1.13;;;;;;;;;;5026635;28;20194;-55
2023/08/09 04:12:04;;;;;;;1.40;1.30;;;;;;;;;;5028349;28;20255;-55
2023/08/09 04:14:30;;;;;;;1.93;1.40;;;;;;;;;;5028493;28;20190;-55
2023/08/09 04:16:59;;;;;;;1.40;1.30;;;;;;;;;;5028071;28;20663;-55
2023/08/09 04:19:28;;;;;;;1.60;1.50;;;;;;;;;;5025740;28;20190;-56
2023/08/09 04:21:54;;;;;;;1.20;1.20;;;;;;;;;;5028603;28;20736;-55
2023/08/09 04:24:20;;;;;;;1.60;1.50;;;;;;;;;;5027823;28;20186;-55
2023/08/09 04:26:46;;;;;;;2.00;1.60;;;;;;;;;;5028462;28;20212;-55
2023/08/09 04:29:12;;;;;;;1.90;1.80;;;;;;;;;;5024753;28;20198;-55
2023/08/09 04:31:38;;;;;;;1.80;1.70;;;;;;;;;;5023118;28;20241;-55
2023/08/09 04:34:05;;;;;;;1.50;1.40;;;;;;;;;;5017299;28;20213;-55
2023/08/09 04:36:31;;;;;;;1.50;1.40;;;;;;;;;;5026285;28;21078;-51
2023/08/09 04:38:57;;;;;;;1.40;1.30;;;;;;;;;;5027051;28;20228;-50
2023/08/09 04:41:24;;;;;;;1.60;1.50;;;;;;;;;;5029103;28;20211;-51
2023/08/09 04:43:50;;;;;;;1.77;1.67;;;;;;;;;;5026808;28;20658;-51
2023/08/09 04:46:16;;;;;;;2.33;1.93;;;;;;;;;;5025530;28;20706;-52
2023/08/09 04:48:43;;;;;;;1.70;1.60;;;;;;;;;;5025799;28;20576;-52
2023/08/09 04:51:09;;;;;;;1.77;1.57;;;;;;;;;;5019331;28;20331;-52
2023/08/09 04:53:35;;;;;;;1.90;1.80;;;;;;;;;;5007051;28;20735;-50
2023/08/09 04:56:03;;;;;;;1.60;1.50;;;;;;;;;;5023585;28;20193;-51
2023/08/09 04:58:29;;;;;;;1.73;1.63;;;;;;;;;;5023550;28;20619;-52
2023/08/09 05:00:55;;;;;;;2.73;1.87;;;;;;;;;;5022255;28;20252;-53
2023/08/09 05:03:21;;;;;;;1.77;1.67;;;;;;;;;;5020061;28;20178;-52
2023/08/09 05:05:47;;;;;;;1.80;1.70;;;;;;;;;;5023446;28;20273;-53
2023/08/09 05:08:13;;;;;;;2.10;1.90;;;;;;;;;;5025083;28;20256;-51
2023/08/09 05:10:39;;;;;;;2.20;2.00;;;;;;;;;;5025299;28;20194;-51
2023/08/09 05:13:05;;;;;;;2.00;1.90;;;;;;;;;;5023848;28;20196;-50
2023/08/09 05:15:31;;;;;;;2.30;1.90;;;;;;;;;;5026161;28;20212;-52
2023/08/09 05:17:57;;;;;;;2.53;2.00;;;;;;;;;;5025226;28;20632;-50
2023/08/09 05:20:23;;;;;;;1.70;1.60;;;;;;;;;;5025668;28;20247;-52
2023/08/09 05:22:50;;;;;;;2.27;1.90;;;;;;;;;;5017749;28;20628;-51
2023/08/09 05:25:17;;;;;;;3.13;2.13;;;;;;;;;;5026243;28;20202;-51
2023/08/09 05:27:47;;;;;;;1.80;1.70;;;;;;;;;;5022879;28;20369;-53
2023/08/09 05:30:13;;;;;;;1.70;1.60;;;;;;;;;;5023166;28;20240;-51
2023/08/09 05:32:39;;;;;;;2.20;2.00;;;;;;;;;;5023900;28;20193;-50
2023/08/09 05:35:05;;;;;;;2.40;2.00;;;;;;;;;;5027328;28;20190;-51
2023/08/09 05:37:31;;;;;;;2.40;2.20;;;;;;;;;;5023642;28;20234;-52
2023/08/09 05:39:57;;;;;;;2.87;2.57;;;;;;;;;;5024491;28;20638;-51
2023/08/09 05:42:23;;;;;;;2.53;2.33;;;;;;;;;;5025700;28;20193;-52
2023/08/09 05:44:49;;;;;;;2.30;2.07;;;;;;;;;;5020697;28;20696;-52
2023/08/09 05:47:15;;;;;;;2.53;2.10;;;;;;;;;;5023529;28;20586;-51
2023/08/09 05:49:41;;;;;;;7.47;2.50;;;;;;;;;;5027358;28;20672;-53
2023/08/09 05:52:08;;;;;;;2.70;2.20;;;;;;;;;;5026107;28;20197;-50
2023/08/09 05:54:34;;;;;;;3.00;2.60;;;;;;;;;;5021415;28;20190;-51
2023/08/09 05:57:03;;;;;;;2.50;2.30;;;;;;;;;;5024907;28;21438;-52
2023/08/09 05:59:29;;;;;;;3.37;2.80;;;;;;;;;;5023506;28;20205;-51
2023/08/09 06:01:56;;;;;;;2.70;2.50;;;;;;;;;;5025472;28;20178;-52
2023/08/09 06:04:22;;;;;;;2.97;2.70;;;;;;;;;;5009125;28;20531;-51
2023/08/09 06:06:48;;;;;;;4.00;3.70;;;;;;;;;;5026002;28;20279;-53
2023/08/09 06:09:14;;;;;;;2.73;2.53;;;;;;;;;;5022902;28;20243;-51
2023/08/09 06:11:40;;;;;;;2.90;2.70;;;;;;;;;;5026717;28;20182;-52
2023/08/09 06:14:06;;;;;;;5.33;4.50;;;;;;;;;;5027878;28;20208;-52
2023/08/09 06:16:34;;;;;;;4.57;4.17;;;;;;;;;;5027291;28;20691;-51
2023/08/09 06:19:03;;;;;;;4.60;3.97;;;;;;;;;;5026814;28;20295;-51
2023/08/09 06:21:29;;;;;;;5.33;4.83;;;;;;;;;;5026737;28;20231;-52
2023/08/09 06:23:55;;;;;;;5.07;4.67;;;;;;;;;;5025051;28;20228;-52
2023/08/09 06:26:21;;;;;;;5.57;5.07;;;;;;;;;;5028806;28;20577;-51
2023/08/09 06:28:48;;;;;;;5.83;4.93;;;;;;;;;;5027038;28;20217;-52
2023/08/09 06:31:16;;;;;;;6.63;5.20;;;;;;;;;;5028780;28;20256;-51
2023/08/09 06:33:42;;;;;;;6.90;5.27;;;;;;;;;;5027239;28;20182;-51
2023/08/09 06:36:09;;;;;;;9.00;7.80;;;;;;;;;;5026501;28;20232;-51
2023/08/09 06:38:35;;;;;;;11.27;7.73;;;;;;;;;;5028367;28;20202;-51
2023/08/09 06:41:01;;;;;;;13.43;12.03;;;;;;;;;;5027859;28;20728;-52
2023/08/09 06:43:27;;;;;;;16.33;14.37;;;;;;;;;;5024605;28;20178;-53
2023/08/09 06:45:53;;;;;;;23.43;20.90;;;;;;;;;;5021186;28;20280;-52
2023/08/09 06:48:19;;;;;;;22.20;19.60;;;;;;;;;;5027381;28;20198;-51
2023/08/09 06:50:45;;;;;;;21.10;17.73;;;;;;;;;;5027386;28;20198;-52
2023/08/09 06:53:11;;;;;;;18.77;16.77;;;;;;;;;;5029699;28;20676;-52
2023/08/09 06:55:37;;;;;;;19.87;17.73;;;;;;;;;;5025308;28;20189;-55
2023/08/09 06:58:03;;;;;;;21.80;19.43;;;;;;;;;;5027479;28;20247;-55
2023/08/09 07:00:29;;;;;;;20.83;18.63;;;;;;;;;;5028921;28;20228;-54
2023/08/09 07:02:55;;;;;;;20.57;18.50;;;;;;;;;;5029860;28;20259;-54
2023/08/09 07:05:22;;;;;;;21.50;19.30;;;;;;;;;;5029308;28;20186;-52
2023/08/09 07:07:51;;;;;;;22.33;19.23;;;;;;;;;;5030250;28;20194;-51
2023/08/09 07:10:18;;;;;;;22.13;19.50;;;;;;;;;;5030098;28;20641;-54
2023/08/09 07:12:44;;;;;;;22.20;19.90;;;;;;;;;;5022369;28;20229;-52
2023/08/09 07:15:11;;;;;;;21.73;19.00;;;;;;;;;;5028182;28;20541;-52
2023/08/09 07:17:38;;;;;;;20.83;18.63;;;;;;;;;;5028957;28;20218;-51
2023/08/09 07:20:14;;;;;;;20.60;18.40;;;;;;;;;;5029588;28;20182;-51
2023/08/09 07:22:40;;;;;;;22.63;19.17;;;;;;;;;;5023629;28;20724;-51
2023/08/09 07:25:10;;;;;;;25.07;22.40;;;;;;;;;;5002638;28;20482;-51
2023/08/09 07:27:43;;;;;;;23.60;21.17;;;;;;;;;;5026033;28;20322;-51
2023/08/09 07:30:10;;;;;;;24.73;22.13;;;;;;;;;;5028163;28;20189;-51
2023/08/09 07:32:40;;;;;;;24.77;22.13;;;;;;;;;;5025636;28;20595;-51
2023/08/09 07:35:07;;;;;;;24.00;21.10;;;;;;;;;;5029211;28;20215;-51
2023/08/09 07:37:34;;;;;;;25.50;22.37;;;;;;;;;;5023883;28;20253;-51
2023/08/09 07:40:00;;;;;;;23.33;20.80;;;;;;;;;;5028040;28;20603;-51
2023/08/09 07:42:26;;;;;;;21.37;18.63;;;;;;;;;;5026615;28;20182;-51
2023/08/09 07:44:53;;;;;;;19.40;16.43;;;;;;;;;;5024786;28;20549;-51
2023/08/09 07:47:19;;;;;;;18.77;16.80;;;;;;;;;;5021881;28;20229;-52
2023/08/09 07:49:45;;;;;;;19.57;17.57;;;;;;;;;;5026064;28;20190;-51
2023/08/09 07:52:11;;;;;;;19.53;16.37;;;;;;;;;;5027765;28;20193;-50
2023/08/09 07:54:37;;;;;;;17.43;15.70;;;;;;;;;;5025938;28;20201;-51
2023/08/09 07:57:04;;;;;;;17.47;15.67;;;;;;;;;;5024748;28;20202;-51
2023/08/09 07:59:30;;;;;;;20.70;18.63;;;;;;;;;;5027040;28;20717;-51
2023/08/09 08:01:56;;;;;;;24.77;21.20;;;;;;;;;;5022571;28;20192;-50
2023/08/09 08:04:22;;;;;;;25.20;22.47;;;;;;;;;;5023009;28;20186;-51
2023/08/09 08:06:48;;;;;;;25.70;23.10;;;;;;;;;;5026398;28;20883;-51
2023/08/09 08:09:16;;;;;;;27.37;23.03;;;;;;;;;;5018185;28;20190;-51
2023/08/09 08:11:43;;;;;;;25.77;22.20;;;;;;;;;;5022693;28;20613;-50
2023/08/09 08:14:09;;;;;;;27.03;22.67;;;;;;;;;;5026277;28;20988;-51
2023/08/09 08:16:38;;;;;;;26.97;23.43;;;;;;;;;;5026165;28;20701;-51
2023/08/09 08:19:04;;;;;;;33.93;25.30;;;;;;;;;;5025555;28;20193;-52
2023/08/09 08:21:30;;;;;;;35.43;27.33;;;;;;;;;;5022631;28;20546;-51
2023/08/09 08:23:56;;;;;;;37.83;27.80;;;;;;;;;;5024716;28;20182;-51
2023/08/09 08:26:23;;;;;;;34.67;26.47;;;;;;;;;;5028508;28;20206;-54
2023/08/09 08:28:49;;;;;;;30.80;25.13;;;;;;;;;;5027514;28;20208;-54
2023/08/09 08:31:19;;;;;;;27.80;24.00;;;;;;;;;;5026783;28;20221;-53
2023/08/09 08:33:45;;;;;;;26.13;22.07;;;;;;;;;;5034482;28;20707;-57
2023/08/09 08:36:12;;;;;;;29.07;23.60;;;;;;;;;;5028918;28;20222;-54
2023/08/09 08:38:38;;;;;;;24.40;20.67;;;;;;;;;;5027678;28;20214;-54
2023/08/09 08:41:05;;;;;;;21.50;19.20;;;;;;;;;;5027255;28;20190;-54
2023/08/09 08:43:31;;;;;;;23.53;19.10;;;;;;;;;;5026595;28;20280;-54
2023/08/09 08:45:58;;;;;;;21.17;18.47;;;;;;;;;;5026248;28;20190;-54
2023/08/09 08:48:25;;;;;;;21.40;17.97;;;;;;;;;;5027215;28;20644;-54
2023/08/09 08:50:51;;;;;;;22.20;18.60;;;;;;;;;;5022854;28;20192;-54
2023/08/09 08:53:18;;;;;;;20.13;17.37;;;;;;;;;;5026055;28;20186;-55
2023/08/09 08:55:44;;;;;;;19.20;16.70;;;;;;;;;;5026553;28;20631;-54
2023/08/09 08:58:12;;;;;;;22.23;17.83;;;;;;;;;;5023549;28;20238;-53
2023/08/09 09:00:38;;;;;;;19.47;15.50;;;;;;;;;;5026082;28;20606;-54
2023/08/09 09:03:04;;;;;;;19.30;17.23;;;;;;;;;;5026398;28;20308;-55
2023/08/09 09:05:30;;;;;;;19.33;16.60;;;;;;;;;;5026717;28;20552;-55
2023/08/09 09:07:56;;;;;;;18.83;15.87;;;;;;;;;;5025347;28;20603;-54
2023/08/09 09:10:23;;;;;;;16.77;14.50;;;;;;;;;;5007453;28;20222;-55
2023/08/09 09:13:01;;;;;;;16.73;14.77;;;;;;;;;;5025731;28;20664;-55
2023/08/09 09:15:28;;;;;;;15.30;13.27;;;;;;;;;;5027584;28;20329;-54
2023/08/09 09:17:54;;;;;;;15.83;13.30;;;;;;;;;;5027134;28;20370;-54
2023/08/09 09:20:23;;;;;;;13.33;11.97;;;;;;;;;;5026406;28;20196;-54
2023/08/09 09:22:49;;;;;;;13.50;12.10;;;;;;;;;;5023456;28;20192;-54
2023/08/09 09:25:17;;;;;;;12.87;11.23;;;;;;;;;;5025538;28;20188;-54
2023/08/09 09:27:46;;;;;;;11.73;10.53;;;;;;;;;;5025851;28;20204;-54
2023/08/09 09:30:13;;;;;;;14.13;11.10;;;;;;;;;;5024834;28;20226;-54
2023/08/09 09:32:43;;;;;;;13.17;11.90;;;;;;;;;;5022205;28;20701;-54
2023/08/09 09:35:11;;;;;;;11.80;10.63;;;;;;;;;;5009414;28;20194;-54
2023/08/09 09:37:37;;;;;;;12.40;11.07;;;;;;;;;;5007696;28;20230;-54
2023/08/09 09:40:10;;;;;;;12.43;11.17;;;;;;;;;;5023864;28;20194;-54
2023/08/09 09:42:36;;;;;;;12.57;11.53;;;;;;;;;;5025779;28;20190;-54
2023/08/09 09:45:04;;;;;;;10.97;9.97;;;;;;;;;;5025368;28;20187;-51
2023/08/09 09:47:32;;;;;;;12.77;11.67;;;;;;;;;;5030223;28;20221;-53
2023/08/09 09:49:58;;;;;;;10.50;9.03;;;;;;;;;;5027008;28;20195;-53
2023/08/09 09:52:24;;;;;;;11.73;9.97;;;;;;;;;;5028548;28;20193;-53
2023/08/09 09:54:51;;;;;;;11.10;9.93;;;;;;;;;;5025992;28;20194;-53
2023/08/09 09:57:17;;;;;;;10.53;9.50;;;;;;;;;;5030554;28;20214;-53
2023/08/09 09:59:43;;;;;;;10.37;9.37;;;;;;;;;;5026219;28;20186;-53
2023/08/09 10:02:10;;;;;;;9.83;8.73;;;;;;;;;;5031034;28;20539;-54
2023/08/09 10:04:36;;;;;;;9.40;8.50;;;;;;;;;;5028572;28;20279;-53
2023/08/09 10:07:03;;;;;;;9.07;8.27;;;;;;;;;;5030140;28;20194;-53
2023/08/09 10:09:29;;;;;;;8.43;7.57;;;;;;;;;;5028118;28;20219;-53
2023/08/09 10:11:57;;;;;;;10.43;7.77;;;;;;;;;;5031809;28;20645;-53
2023/08/09 10:14:26;;;;;;;8.43;6.93;;;;;;;;;;5030414;28;20665;-53
2023/08/09 10:16:52;;;;;;;8.57;7.03;;;;;;;;;;5027808;28;20237;-53
2023/08/09 10:19:22;;;;;;;8.27;6.93;;;;;;;;;;5027806;28;20198;-53
2023/08/09 10:21:50;;;;;;;8.27;6.80;;;;;;;;;;5026763;28;20190;-53
2023/08/09 10:24:18;;;;;;;6.97;6.27;;;;;;;;;;5033662;28;20197;-53
2023/08/09 10:26:46;;;;;;;6.23;5.63;;;;;;;;;;5030268;28;20565;-53
2023/08/09 10:29:13;;;;;;;6.23;5.37;;;;;;;;;;5029704;28;20213;-53
2023/08/09 10:31:48;;;;;;;5.53;4.80;;;;;;;;;;5032053;28;20202;-53
2023/08/09 10:34:37;;;;;;;6.63;4.70;;;;;;;;;;5026713;28;20933;-54
2023/08/09 10:37:07;;;;;;;5.53;4.60;;;;;;;;;;5024296;28;20240;-53
2023/08/09 10:39:34;;;;;;;4.23;3.83;;;;;;;;;;5024791;28;20194;-53
2023/08/09 10:42:01;;;;;;;4.20;3.80;;;;;;;;;;5026506;28;20646;-53
2023/08/09 10:44:34;;;;;;;6.90;6.17;;;;;;;;;;5026389;28;20201;-54
2023/08/09 10:47:12;;;;;;;5.27;4.77;;;;;;;;;;5027197;28;20226;-54
2023/08/09 10:49:44;;;;;;;4.40;4.00;;;;;;;;;;5027608;28;20999;-54
2023/08/09 10:52:18;;;;;;;5.20;4.27;;;;;;;;;;5029348;28;20193;-54
2023/08/09 10:54:44;;;;;;;5.37;4.87;;;;;;;;;;5028345;28;20673;-54
2023/08/09 10:57:11;;;;;;;5.47;4.97;;;;;;;;;;5027671;28;20515;-52
2023/08/09 10:59:38;;;;;;;4.83;4.33;;;;;;;;;;5002752;28;20197;-52
2023/08/09 11:02:05;;;;;;;4.47;4.03;;;;;;;;;;5026284;28;20628;-52
2023/08/09 11:04:31;;;;;;;5.07;4.20;;;;;;;;;;5028356;28;20272;-52
2023/08/09 11:06:58;;;;;;;6.57;3.80;;;;;;;;;;5029358;28;20190;-52
2023/08/09 11:09:24;;;;;;;6.00;3.67;;;;;;;;;;5025915;28;20193;-52
2023/08/09 11:11:51;;;;;;;3.60;3.30;;;;;;;;;;5026870;28;20542;-53
2023/08/09 11:14:19;;;;;;;3.97;3.57;;;;;;;;;;5026514;28;20190;-53
2023/08/09 11:16:45;;;;;;;4.73;3.53;;;;;;;;;;5032626;28;20588;-52
2023/08/09 11:19:16;;;;;;;3.80;3.50;;;;;;;;;;5026977;28;20190;-53
2023/08/09 11:21:49;;;;;;;3.20;2.93;;;;;;;;;;5007725;28;20649;-52
2023/08/09 11:24:17;;;;;;;6.30;3.30;;;;;;;;;;5027208;28;20606;-52
2023/08/09 11:26:48;;;;;;;3.63;3.17;;;;;;;;;;5024911;28;20646;-52
2023/08/09 11:29:15;;;;;;;3.83;2.97;;;;;;;;;;5026460;28;20264;-53
2023/08/09 11:31:45;;;;;;;5.30;3.47;;;;;;;;;;5027754;28;20215;-52
2023/08/09 11:34:12;;;;;;;2.47;2.27;;;;;;;;;;5025299;28;20191;-52
2023/08/09 11:36:40;;;;;;;5.43;3.00;;;;;;;;;;5023648;28;20222;-53
2023/08/09 11:39:08;;;;;;;2.77;2.47;;;;;;;;;;5005214;28;20221;-51
2023/08/09 11:41:42;;;;;;;3.23;2.33;;;;;;;;;;5027399;28;20198;-52
2023/08/09 11:44:08;;;;;;;3.60;2.50;;;;;;;;;;5025149;28;20265;-52
2023/08/09 11:46:34;;;;;;;3.73;2.90;;;;;;;;;;5024290;28;20190;-52
2023/08/09 11:49:04;;;;;;;3.90;2.90;;;;;;;;;;5024054;28;20182;-52
2023/08/09 11:51:32;;;;;;;3.10;2.80;;;;;;;;;;5023436;28;20570;-52
2023/08/09 11:53:59;;;;;;;3.53;2.63;;;;;;;;;;5025975;28;20214;-52
2023/08/09 11:56:31;;;;;;;4.87;2.63;;;;;;;;;;5024653;28;20182;-52
2023/08/09 11:58:59;;;;;;;4.43;2.80;;;;;;;;;;5026791;28;20229;-52
2023/08/09 12:01:25;;;;;;;3.07;2.77;;;;;;;;;;5025801;28;20653;-52
2023/08/09 12:03:56;;;;;;;3.53;2.80;;;;;;;;;;5022049;28;20182;-51
2023/08/09 12:06:34;;;;;;;3.07;2.80;;;;;;;;;;5021554;28;20181;-54
2023/08/09 12:09:01;;;;;;;5.20;2.73;;;;;;;;;;5006805;28;20197;-55
2023/08/09 12:11:28;;;;;;;5.57;3.13;;;;;;;;;;5021520;28;20194;-56
2023/08/09 12:13:55;;;;;;;4.00;3.60;;;;;;;;;;5023586;28;20194;-55
2023/08/09 12:16:21;;;;;;;3.17;2.87;;;;;;;;;;5026973;28;20565;-55
2023/08/09 12:18:47;;;;;;;3.93;2.93;;;;;;;;;;5025161;28;20728;-55
2023/08/09 12:21:13;;;;;;;2.60;2.40;;;;;;;;;;5021378;28;20182;-57
2023/08/09 12:23:40;;;;;;;5.00;2.73;;;;;;;;;;5026595;28;20269;-55
2023/08/09 12:26:07;;;;;;;4.33;2.70;;;;;;;;;;5023492;28;20666;-55
2023/08/09 12:28:34;;;;;;;4.43;3.00;;;;;;;;;;5026264;28;20193;-55
2023/08/09 12:31:00;;;;;;;9.40;3.27;;;;;;;;;;5027137;28;20690;-56
2023/08/09 12:33:27;;;;;;;4.00;2.30;;;;;;;;;;5025851;28;20195;-56
2023/08/09 12:35:53;;;;;;;2.47;2.10;;;;;;;;;;5023158;28;20188;-56
2023/08/09 12:38:19;;;;;;;4.93;2.77;;;;;;;;;;5022618;28;20628;-56
2023/08/09 12:40:48;;;;;;;2.93;2.60;;;;;;;;;;5025447;28;20187;-55
2023/08/09 12:43:14;;;;;;;3.60;2.33;;;;;;;;;;5019193;28;20195;-56
2023/08/09 12:45:41;;;;;;;2.70;2.50;;;;;;;;;;5025057;28;20595;-56
2023/08/09 12:48:08;;;;;;;3.37;2.30;;;;;;;;;;5023926;28;20580;-56
2023/08/09 12:50:34;;;;;;;2.20;2.03;;;;;;;;;;5027777;28;20223;-57
2023/08/09 12:53:00;;;;;;;2.83;2.57;;;;;;;;;;5025983;28;20207;-56
2023/08/09 12:55:27;;;;;;;2.40;2.20;;;;;;;;;;5026696;28;20235;-54
2023/08/09 12:57:53;;;;;;;2.43;2.23;;;;;;;;;;5003483;28;20225;-54
2023/08/09 13:00:20;;;;;;;2.10;2.00;;;;;;;;;;5027103;28;20242;-53
2023/08/09 13:02:47;;;;;;;2.73;2.20;;;;;;;;;;5026344;28;20309;-53
2023/08/09 13:05:13;;;;;;;3.07;2.10;;;;;;;;;;5026491;28;20279;-54
2023/08/09 13:07:40;;;;;;;2.23;1.70;;;;;;;;;;5019668;28;20633;-53
2023/08/09 13:10:06;;;;;;;2.30;2.10;;;;;;;;;;5021952;28;20191;-54
2023/08/09 13:12:33;;;;;;;2.37;1.77;;;;;;;;;;5023677;28;20278;-54
2023/08/09 13:14:59;;;;;;;2.30;2.10;;;;;;;;;;5008071;28;20461;-53
2023/08/09 13:17:26;;;;;;;2.47;1.70;;;;;;;;;;5024174;28;20202;-53
2023/08/09 13:19:52;;;;;;;1.70;1.57;;;;;;;;;;5023201;28;20188;-52
2023/08/09 13:22:19;;;;;;;2.30;2.10;;;;;;;;;;5024269;28;20256;-52
2023/08/09 13:24:46;;;;;;;3.17;2.40;;;;;;;;;;5008644;28;20583;-53
2023/08/09 13:27:14;;;;;;;2.10;1.90;;;;;;;;;;5023857;28;20193;-53
2023/08/09 13:29:40;;;;;;;2.43;2.23;;;;;;;;;;5021273;28;20188;-53
2023/08/09 13:32:07;;;;;;;2.07;1.97;;;;;;;;;;5022377;28;20236;-53
2023/08/09 13:34:34;;;;;;;2.30;2.10;;;;;;;;;;5020325;28;20185;-53
2023/08/09 13:37:01;;;;;;;2.53;2.17;;;;;;;;;;5021309;28;20580;-53
2023/08/09 13:39:30;;;;;;;2.27;2.07;;;;;;;;;;5023309;28;20192;-52
2023/08/09 13:41:56;;;;;;;2.20;2.10;;;;;;;;;;5023679;28;20188;-52
2023/08/09 13:44:24;;;;;;;3.37;2.23;;;;;;;;;;5020499;28;20189;-53
2023/08/09 13:46:50;;;;;;;3.17;2.20;;;;;;;;;;5026453;28;20199;-54
2023/08/09 13:49:16;;;;;;;2.17;2.07;;;;;;;;;;5025766;28;20177;-53
2023/08/09 13:51:43;;;;;;;2.40;2.20;;;;;;;;;;5022532;28;20225;-53
2023/08/09 13:54:09;;;;;;;3.63;2.57;;;;;;;;;;5018263;28;20192;-54
2023/08/09 13:56:36;;;;;;;2.60;2.40;;;;;;;;;;5018511;28;20196;-53
2023/08/09 13:59:02;;;;;;;2.90;2.70;;;;;;;;;;5004446;28;20790;-53
2023/08/09 14:01:28;;;;;;;2.40;2.20;;;;;;;;;;5024928;28;20214;-53
2023/08/09 14:03:54;;;;;;;2.63;2.43;;;;;;;;;;5022708;28;20193;-53
2023/08/09 14:06:20;;;;;;;2.50;2.30;;;;;;;;;;5023949;28;20278;-53
2023/08/09 14:08:46;;;;;;;2.30;2.20;;;;;;;;;;5019186;28;20663;-52
2023/08/09 14:11:12;;;;;;;2.27;2.07;;;;;;;;;;5023063;28;20258;-52
2023/08/09 14:13:38;;;;;;;2.70;2.50;;;;;;;;;;5024835;28;20209;-53
2023/08/09 14:16:05;;;;;;;2.83;2.63;;;;;;;;;;5023222;28;20196;-53
2023/08/09 14:18:33;;;;;;;2.50;2.30;;;;;;;;;;5022092;28;20652;-53
2023/08/09 14:20:59;;;;;;;3.23;2.93;;;;;;;;;;5023470;28;20198;-52
2023/08/09 14:23:25;;;;;;;2.70;2.50;;;;;;;;;;5024189;28;20271;-53
2023/08/09 14:25:52;;;;;;;2.80;2.60;;;;;;;;;;5023574;28;20189;-52
2023/08/09 14:28:20;;;;;;;2.67;2.23;;;;;;;;;;5025646;28;20203;-52
2023/08/09 14:30:46;;;;;;;3.03;2.67;;;;;;;;;;5024756;28;20274;-51
2023/08/09 14:33:13;;;;;;;2.90;2.70;;;;;;;;;;5029672;28;20194;-51
2023/08/09 14:35:40;;;;;;;2.33;2.13;;;;;;;;;;5025634;28;20196;-52